Time;durP1;ratioP1;P1;durP2;ratioP2;P2;SDS_P1;SDS_P2;PMS_P1;PMS_P2;Temp;Humidity;BMP_temperature;BMP_pressure;BME280_temperature;BME280_humidity;BME280_pressure;Samples;Min_cycle;Max_cycle;Signal;HPM_P1;HPM_P2
2023/10/02 00:02:40;;;;;;;4.53;3.05;;;24.10;51.60;;;;;;5001785;28;20480;-63
2023/10/02 00:05:05;;;;;;;4.45;3.10;;;24.00;51.60;;;;;;4998312;28;20041;-62
2023/10/02 00:07:33;;;;;;;5.18;3.22;;;24.00;51.70;;;;;;5000672;28;20033;-62
2023/10/02 00:10:03;;;;;;;4.80;3.13;;;24.00;51.70;;;;;;5001067;28;20109;-62
2023/10/02 00:12:31;;;;;;;4.63;2.88;;;24.00;51.80;;;;;;4998826;28;20034;-63
2023/10/02 00:14:58;;;;;;;4.10;2.75;;;24.00;51.70;;;;;;4998090;28;20027;-63
2023/10/02 00:17:24;;;;;;;5.03;3.20;;;24.00;51.70;;;;;;5000456;28;20026;-63
2023/10/02 00:20:12;;;;;;;5.00;3.22;;;24.00;51.70;;;;;;5000389;28;20375;-62
2023/10/02 00:22:38;;;;;;;5.05;3.08;;;24.00;51.70;;;;;;5015044;28;20053;-63
2023/10/02 00:25:09;;;;;;;4.30;3.10;;;24.00;51.70;;;;;;5000465;28;20021;-61
2023/10/02 00:27:36;;;;;;;5.15;2.88;;;24.00;51.70;;;;;;5000042;28;20038;-62
2023/10/02 00:30:03;;;;;;;4.65;2.88;;;23.90;51.70;;;;;;4998237;28;20088;-62
2023/10/02 00:32:29;;;;;;;5.05;3.10;;;23.90;51.70;;;;;;4998945;28;20041;-63
2023/10/02 00:34:58;;;;;;;4.55;2.90;;;23.90;51.70;;;;;;4998912;28;20482;-62
2023/10/02 00:37:43;;;;;;;;;;;23.90;51.70;;;;;;4999979;28;20474;-62
2023/10/02 00:40:22;;;;;;;4.45;2.80;;;23.90;51.70;;;;;;5000221;28;19971;-62
2023/10/02 00:42:56;;;;;;;4.82;2.67;;;23.90;51.70;;;;;;4998122;28;20130;-63
2023/10/02 00:45:23;;;;;;;4.25;2.70;;;23.90;51.70;;;;;;5004708;28;20034;-62
2023/10/02 00:47:52;;;;;;;4.53;2.88;;;23.90;51.80;;;;;;4998407;28;20018;-62
2023/10/02 00:50:19;;;;;;;4.13;2.67;;;23.90;51.80;;;;;;4998427;28;20755;-63
2023/10/02 00:53:03;;;;;;;4.40;2.85;;;23.90;51.80;;;;;;5000286;28;20030;-62
2023/10/02 00:55:34;;;;;;;4.18;2.60;;;23.80;51.80;;;;;;5006175;28;20018;-62
2023/10/02 00:58:05;;;;;;;4.60;3.05;;;23.80;51.70;;;;;;5013931;28;20026;-63
2023/10/02 01:00:37;;;;;;;4.75;2.80;;;23.80;51.80;;;;;;4998454;28;20062;-62
2023/10/02 01:03:05;;;;;;;4.20;2.70;;;23.80;51.80;;;;;;5000803;28;20112;-62
2023/10/02 01:05:47;;;;;;;4.28;2.47;;;23.80;51.80;;;;;;4997217;28;20037;-63
2023/10/02 01:08:25;;;;;;;4.80;3.00;;;23.80;51.80;;;;;;4999437;28;20034;-62
2023/10/02 01:11:07;;;;;;;4.80;2.75;;;23.80;51.80;;;;;;4998601;28;20025;-62
2023/10/02 01:13:34;;;;;;;4.18;2.67;;;23.80;51.80;;;;;;4998830;28;20377;-64
2023/10/02 01:16:08;;;;;;;4.50;2.72;;;23.80;51.80;;;;;;4996195;28;20104;-64
2023/10/02 01:18:38;;;;;;;4.30;2.80;;;23.80;51.80;;;;;;4998796;28;20501;-63
2023/10/02 01:21:12;;;;;;;4.15;2.78;;;23.70;51.80;;;;;;4999346;28;20158;-63
2023/10/02 01:24:06;;;;;;;4.90;3.10;;;23.80;51.90;;;;;;4998648;28;20106;-63
2023/10/02 01:26:43;;;;;;;4.88;2.70;;;23.80;51.90;;;;;;4998626;28;20133;-64
2023/10/02 01:29:11;;;;;;;3.95;2.97;;;23.80;51.90;;;;;;4998268;28;20440;-62
2023/10/02 01:31:51;;;;;;;4.32;2.80;;;23.80;51.90;;;;;;4996562;28;20463;-62
2023/10/02 01:40:28;;;;;;;4.38;2.60;;;23.70;51.90;;;;;;5004032;28;20049;-64
2023/10/02 01:42:43;;;;;;;4.45;2.92;;;23.70;51.90;;;;;;5003658;28;20121;-64
2023/10/02 01:45:09;;;;;;;4.57;2.60;;;23.70;51.90;;;;;;5002530;28;20057;-66
2023/10/02 01:47:41;;;;;;;3.88;2.70;;;23.70;51.90;;;;;;4999915;28;20038;-64
2023/10/02 01:50:09;;;;;;;3.88;2.47;;;23.70;51.90;;;;;;5001493;28;20030;-64
2023/10/02 01:52:35;;;;;;;4.03;2.63;;;23.70;52.00;;;;;;5002791;28;20030;-64
2023/10/02 01:55:02;;;;;;;4.40;2.63;;;23.70;51.90;;;;;;5005186;28;20053;-64
2023/10/02 01:57:29;;;;;;;3.88;2.50;;;23.70;52.50;;;;;;5003691;28;20037;-65
2023/10/02 02:00:13;;;;;;;4.20;2.70;;;23.70;52.00;;;;;;5003607;28;20041;-65
2023/10/02 02:02:41;;;;;;;3.85;2.53;;;23.70;52.00;;;;;;5000270;28;20062;-66
2023/10/02 02:05:13;;;;;;;4.07;2.60;;;23.70;52.00;;;;;;5002246;28;20474;-65
2023/10/02 02:07:39;;;;;;;3.83;2.50;;;23.70;52.00;;;;;;5003447;28;20026;-66
2023/10/02 02:10:06;;;;;;;4.65;2.70;;;23.60;52.00;;;;;;5002126;28;20022;-65
2023/10/02 02:12:44;;;;;;;3.90;2.55;;;23.70;52.00;;;;;;5002575;28;20513;-64
2023/10/02 02:15:11;;;;;;;3.88;2.33;;;23.60;52.00;;;;;;5004298;28;20448;-64
2023/10/02 02:17:37;;;;;;;4.05;2.63;;;23.60;52.00;;;;;;5000730;28;20030;-65
2023/10/02 02:20:11;;;;;;;4.10;2.50;;;23.60;52.00;;;;;;4999288;28;20046;-64
2023/10/02 02:22:37;;;;;;;4.20;2.45;;;23.60;52.00;;;;;;5001542;28;20496;-63
2023/10/02 02:25:06;;;;;;;4.18;2.47;;;23.60;52.00;;;;;;5003946;28;20034;-63
2023/10/02 02:27:32;;;;;;;4.82;2.53;;;23.60;52.00;;;;;;5002427;28;20037;-63
2023/10/02 02:29:58;;;;;;;4.45;2.70;;;23.60;52.00;;;;;;5000554;28;20030;-62
2023/10/02 02:32:44;;;;;;;4.18;2.70;;;23.60;52.10;;;;;;5000704;28;20032;-63
2023/10/02 02:35:14;;;;;;;4.80;2.92;;;23.60;52.10;;;;;;5002579;28;20061;-62
2023/10/02 02:37:41;;;;;;;3.63;2.50;;;23.60;52.10;;;;;;5001917;28;20487;-62
2023/10/02 02:40:24;;;;;;;4.25;2.53;;;23.50;52.00;;;;;;5001922;28;20041;-68
2023/10/02 02:42:51;;;;;;;3.97;2.40;;;23.60;52.10;;;;;;5001520;28;20032;-67
2023/10/02 02:45:31;;;;;;;3.80;2.50;;;23.50;52.00;;;;;;5000532;28;20509;-68
2023/10/02 02:48:03;;;;;;;4.13;2.60;;;23.50;52.00;;;;;;4999261;28;20057;-68
2023/10/02 02:50:40;;;;;;;3.20;2.00;;;23.50;52.00;;;;;;4999957;28;20022;-63
2023/10/02 02:53:16;;;;;;;3.70;2.45;;;23.50;52.00;;;;;;5000904;28;20482;-62
2023/10/02 02:55:42;;;;;;;4.00;2.42;;;23.50;52.10;;;;;;5000687;28;20039;-63
2023/10/02 02:58:09;;;;;;;3.45;2.15;;;23.50;52.10;;;;;;5017177;28;20188;-62
2023/10/02 03:00:39;;;;;;;3.85;2.30;;;23.50;52.10;;;;;;5001833;28;20070;-62
2023/10/02 03:03:29;;;;;;;3.55;2.50;;;23.50;52.10;;;;;;5002414;28;20037;-62
2023/10/02 03:05:52;;;;;;;3.85;2.42;;;23.50;52.10;;;;;;5000793;28;20367;-63
2023/10/02 03:08:19;;;;;;;3.45;2.20;;;23.50;52.10;;;;;;5000359;28;20485;-63
2023/10/02 03:10:46;;;;;;;3.33;2.20;;;23.50;52.10;;;;;;4999403;28;20572;-62
2023/10/02 03:13:18;;;;;;;3.80;2.47;;;23.50;52.10;;;;;;5001274;28;20028;-64
2023/10/02 03:15:47;;;;;;;3.40;2.10;;;23.50;52.10;;;;;;5000940;28;20037;-63
2023/10/02 03:18:31;;;;;;;3.45;2.20;;;23.50;52.10;;;;;;5000077;28;20034;-63
2023/10/02 03:23:42;;;;;;;3.20;2.05;;;23.50;52.10;;;;;;5001452;28;20643;-63
2023/10/02 03:29:01;;;;;;;3.78;2.38;;;23.40;52.10;;;;;;5001108;28;20037;-63
2023/10/02 03:31:34;;;;;;;3.40;2.20;;;23.40;52.10;;;;;;4999134;28;20022;-68
2023/10/02 03:34:29;;;;;;;2.95;1.90;;;23.40;52.10;;;;;;5001630;28;20035;-68
2023/10/02 03:37:13;;;;;;;3.40;2.20;;;23.40;52.10;;;;;;5001718;28;20386;-68
2023/10/02 03:42:39;;;;;;;3.53;2.42;;;23.40;52.10;;;;;;5010102;28;20030;-69
2023/10/02 03:45:05;;;;;;;3.50;2.25;;;23.40;52.10;;;;;;5001348;28;20101;-68
2023/10/02 03:47:33;;;;;;;3.90;2.30;;;23.40;52.10;;;;;;4999668;28;20029;-67
2023/10/02 03:50:00;;;;;;;3.58;2.28;;;23.40;52.10;;;;;;4999293;28;20489;-68
2023/10/02 03:52:28;;;;;;;3.20;2.00;;;23.40;52.20;;;;;;5000346;28;20030;-69
2023/10/02 03:54:54;;;;;;;3.25;2.05;;;23.40;52.20;;;;;;5000749;28;20081;-68
2023/10/02 03:57:47;;;;;;;3.83;2.20;;;23.40;52.20;;;;;;4999486;28;20502;-68
2023/10/02 04:00:42;;;;;;;3.10;2.00;;;23.40;52.20;;;;;;4999780;28;20506;-68
2023/10/02 04:03:08;;;;;;;2.72;1.80;;;23.40;52.20;;;;;;4997878;28;20126;-67
2023/10/02 04:08:21;;;;;;;3.78;2.38;;;23.40;52.20;;;;;;5000114;28;20022;-69
2023/10/02 04:10:55;;;;;;;3.13;2.00;;;23.30;52.20;;;;;;4997906;28;20050;-69
2023/10/02 04:13:23;;;;;;;3.53;2.28;;;23.40;52.20;;;;;;4999457;28;20100;-69
2023/10/02 04:15:53;;;;;;;3.17;2.22;;;23.40;52.20;;;;;;5001560;28;20771;-68
2023/10/02 04:18:45;;;;;;;3.38;2.03;;;23.30;52.20;;;;;;4997614;28;20433;-68
2023/10/02 04:21:13;;;;;;;3.22;1.90;;;23.30;52.20;;;;;;4995826;28;20046;-68
2023/10/02 04:23:42;;;;;;;3.17;1.98;;;23.30;52.20;;;;;;5002301;28;20113;-70
2023/10/02 04:26:19;;;;;;;2.95;1.90;;;23.30;52.20;;;;;;4999314;28;20060;-69
2023/10/02 04:29:13;;;;;;;3.00;2.00;;;23.30;52.30;;;;;;5001006;28;20038;-69
2023/10/02 04:31:42;;;;;;;3.17;2.10;;;23.30;52.30;;;;;;5000364;28;20557;-69
2023/10/02 04:34:29;;;;;;;3.50;2.20;;;23.30;52.30;;;;;;5000513;28;20447;-66
2023/10/02 04:36:54;;;;;;;3.85;2.20;;;23.30;52.30;;;;;;5000806;28;20033;-67
2023/10/02 04:42:15;;;;;;;3.53;2.10;;;23.30;52.40;;;;;;4999362;28;20054;-67
2023/10/02 04:44:56;;;;;;;3.28;2.10;;;23.30;52.40;;;;;;4996937;28;20026;-67
2023/10/02 04:47:23;;;;;;;3.30;2.20;;;23.30;52.40;;;;;;4997418;28;20040;-67
2023/10/02 04:52:55;;;;;;;3.58;2.10;;;23.20;52.40;;;;;;4999773;28;20037;-67
2023/10/02 04:55:49;;;;;;;3.45;2.15;;;23.20;52.30;;;;;;4999681;28;20414;-67
2023/10/02 04:58:15;;;;;;;3.38;2.30;;;23.20;52.40;;;;;;4998298;28;20054;-67
2023/10/02 05:03:29;;;;;;;3.13;2.00;;;23.20;52.40;;;;;;4997354;28;20037;-67
2023/10/02 05:05:58;;;;;;;3.60;1.92;;;23.20;52.40;;;;;;4998486;28;20030;-67
2023/10/02 05:11:07;;;;;;;2.85;1.85;;;23.20;52.40;;;;;;4999073;28;20045;-67
2023/10/02 05:13:59;;;;;;;2.65;1.92;;;23.20;52.40;;;;;;4998520;28;20040;-67
2023/10/02 05:16:38;;;;;;;2.90;1.85;;;23.20;52.50;;;;;;4999126;28;20441;-67
2023/10/02 05:19:06;;;;;;;3.25;2.03;;;23.20;52.40;;;;;;4998156;28;20033;-67
2023/10/02 05:21:38;;;;;;;3.15;1.90;;;23.20;52.50;;;;;;4997926;28;20026;-67
2023/10/02 05:24:11;;;;;;;3.70;2.10;;;23.20;52.50;;;;;;4998212;28;20124;-67
2023/10/02 05:26:41;;;;;;;3.85;1.85;;;23.20;52.50;;;;;;4998679;28;20026;-67
2023/10/02 05:29:18;;;;;;;3.30;2.00;;;23.20;52.50;;;;;;4998399;28;20030;-66
2023/10/02 05:31:45;;;;;;;4.43;2.20;;;23.20;52.50;;;;;;4999074;28;20022;-66
2023/10/02 05:34:21;;;;;;;3.67;2.30;;;23.20;52.80;;;;;;4996365;28;20490;-66
2023/10/02 05:39:39;;;;;;;3.55;2.40;;;23.30;52.80;;;;;;5000151;28;20509;-66
2023/10/02 05:42:05;;;;;;;3.55;2.15;;;23.30;52.70;;;;;;4999646;28;20667;-65
2023/10/02 05:44:35;;;;;;;3.97;2.60;;;23.40;52.60;;;;;;4997178;28;20030;-65
2023/10/02 05:47:07;;;;;;;4.07;2.72;;;23.50;52.60;;;;;;4998985;28;20034;-66
2023/10/02 05:49:43;;;;;;;3.78;2.42;;;23.50;52.50;;;;;;4995678;28;20076;-66
2023/10/02 05:52:09;;;;;;;4.07;2.65;;;23.60;52.40;;;;;;4999019;28;20037;-61
2023/10/02 05:54:40;;;;;;;4.10;2.47;;;23.60;52.30;;;;;;4998517;28;20033;-61
2023/10/02 05:57:08;;;;;;;4.65;2.95;;;23.70;52.30;;;;;;4998728;28;20022;-62
2023/10/02 05:59:48;;;;;;;3.88;2.70;;;23.70;52.10;;;;;;4998345;28;20031;-62
2023/10/02 06:02:14;;;;;;;3.40;2.20;;;23.80;52.10;;;;;;4997676;28;20109;-62
2023/10/02 06:04:43;;;;;;;4.78;2.60;;;23.90;52.10;;;;;;4997604;28;20027;-62
2023/10/02 06:07:11;;;;;;;4.00;2.60;;;23.90;52.00;;;;;;4998119;28;20041;-62
2023/10/02 06:09:44;;;;;;;3.78;2.60;;;23.90;51.90;;;;;;5001736;28;20030;-62
2023/10/02 06:12:11;;;;;;;4.72;2.80;;;24.00;51.80;;;;;;4998859;28;20446;-61
2023/10/02 06:14:39;;;;;;;4.35;2.65;;;24.10;51.70;;;;;;4999639;28;20076;-61
2023/10/02 06:17:11;;;;;;;3.88;2.50;;;24.10;51.60;;;;;;4997266;28;20028;-61
2023/10/02 06:19:42;;;;;;;4.22;2.40;;;24.20;51.50;;;;;;4996578;28;20430;-62
2023/10/02 06:22:09;;;;;;;4.28;2.80;;;24.30;51.40;;;;;;4999326;28;20026;-62
2023/10/02 06:24:35;;;;;;;4.40;2.70;;;24.30;51.30;;;;;;5000616;28;20042;-61
2023/10/02 06:27:07;;;;;;;4.70;2.70;;;24.40;51.70;;;;;;5001402;28;20040;-61
2023/10/02 06:29:37;;;;;;;4.28;2.60;;;24.40;51.10;;;;;;5003264;28;20486;-61
2023/10/02 06:32:11;;;;;;;4.28;2.83;;;24.40;51.00;;;;;;5003902;28;20026;-61
2023/10/02 06:34:39;;;;;;;4.32;2.80;;;24.50;50.90;;;;;;5000820;28;20034;-61
2023/10/02 06:37:07;;;;;;;4.93;2.50;;;24.60;50.90;;;;;;5001374;28;20062;-61
2023/10/02 06:39:36;;;;;;;4.17;2.67;;;24.70;50.90;;;;;;5001759;28;20140;-61
2023/10/02 06:42:04;;;;;;;4.13;2.50;;;24.70;50.70;;;;;;5002279;28;20394;-60
2023/10/02 06:44:35;;;;;;;5.10;2.80;;;24.80;50.50;;;;;;4999630;28;20018;-60
2023/10/02 06:47:04;;;;;;;4.38;2.33;;;24.90;50.60;;;;;;5001544;28;20473;-60
2023/10/02 06:49:30;;;;;;;3.83;2.38;;;25.00;50.50;;;;;;4999395;28;20034;-61
2023/10/02 06:52:11;;;;;;;3.63;2.45;;;25.00;50.30;;;;;;5001365;28;20460;-61
2023/10/02 06:54:42;;;;;;;3.47;2.20;;;25.10;50.20;;;;;;5001211;28;20046;-62
2023/10/02 06:57:11;;;;;;;4.28;2.58;;;25.20;50.10;;;;;;5000645;28;20026;-61
2023/10/02 06:59:38;;;;;;;4.82;2.60;;;25.30;49.90;;;;;;5001179;28;20041;-61
2023/10/02 07:02:06;;;;;;;4.22;2.60;;;25.30;49.60;;;;;;5001567;28;20126;-62
2023/10/02 07:04:35;;;;;;;5.60;3.10;;;25.30;49.50;;;;;;5000793;28;20589;-59
2023/10/02 07:07:04;;;;;;;;;;;25.30;49.50;;;;;;5001714;28;20062;-61
2023/10/02 07:09:36;;;;;;;4.82;2.88;;;25.30;49.60;;;;;;5001522;28;20385;-60
2023/10/02 07:12:08;;;;;;;4.30;2.70;;;25.30;49.60;;;;;;5001970;28;20113;-59
2023/10/02 07:14:38;;;;;;;3.97;2.20;;;25.30;49.60;;;;;;4999414;28;20040;-62
2023/10/02 07:17:16;;;;;;;4.32;2.90;;;25.30;49.70;;;;;;5001091;28;20216;-62
2023/10/02 07:19:50;;;;;;;3.65;2.50;;;25.20;49.60;;;;;;4999804;28;20033;-60
2023/10/02 07:22:23;;;;;;;4.38;2.72;;;25.20;49.70;;;;;;5000749;28;20105;-61
2023/10/02 07:24:55;;;;;;;4.93;2.58;;;25.20;49.70;;;;;;5001371;28;20447;-62
2023/10/02 07:27:27;;;;;;;4.57;2.65;;;25.20;49.70;;;;;;4999827;28;20022;-62
2023/10/02 07:29:56;;;;;;;4.25;2.75;;;25.20;49.70;;;;;;5002010;28;20703;-61
2023/10/02 07:32:23;;;;;;;4.60;2.58;;;25.20;49.70;;;;;;5000171;28;20109;-62
2023/10/02 07:34:51;;;;;;;4.78;3.13;;;25.20;50.40;;;;;;4998471;28;20026;-62
2023/10/02 07:37:21;;;;;;;4.22;2.80;;;25.20;49.80;;;;;;4999479;28;20125;-62
2023/10/02 07:39:56;;;;;;;4.78;2.85;;;25.20;49.80;;;;;;4999917;28;20018;-62
2023/10/02 07:42:28;;;;;;;4.97;2.88;;;25.20;49.80;;;;;;5000551;28;20022;-62
2023/10/02 07:45:11;;;;;;;3.95;2.67;;;25.20;49.90;;;;;;5000245;28;20030;-62
2023/10/02 07:47:39;;;;;;;4.90;2.60;;;25.20;49.90;;;;;;5000272;28;20017;-62
2023/10/02 07:50:23;;;;;;;4.63;2.88;;;25.20;49.90;;;;;;4997321;28;20029;-63
2023/10/02 07:52:49;;;;;;;4.60;2.75;;;25.20;49.90;;;;;;4999601;28;20034;-63
2023/10/02 07:55:15;;;;;;;4.63;2.80;;;25.20;49.80;;;;;;5000313;28;20080;-63
2023/10/02 07:57:41;;;;;;;4.38;2.67;;;25.20;49.90;;;;;;5000357;28;20030;-62
2023/10/02 08:00:33;;;;;;;5.43;3.15;;;25.20;49.90;;;;;;4999534;28;20057;-63
2023/10/02 08:02:53;;;;;;;5.72;2.92;;;25.20;49.90;;;;;;4999197;28;20177;-63
2023/10/02 08:05:20;;;;;;;4.55;2.65;;;25.20;49.90;;;;;;4998336;28;20125;-62
2023/10/02 08:07:46;;;;;;;4.68;2.80;;;25.20;49.90;;;;;;5001774;28;20684;-62
2023/10/02 08:10:13;;;;;;;4.43;2.90;;;25.20;50.00;;;;;;5001014;28;20808;-62
2023/10/02 08:12:54;;;;;;;4.80;2.97;;;25.20;50.00;;;;;;4999417;28;20156;-62
2023/10/02 08:15:26;;;;;;;4.78;2.90;;;25.20;50.00;;;;;;5000783;28;20026;-61
2023/10/02 08:20:24;;;;;;;3.78;2.47;;;25.20;50.00;;;;;;4997152;28;20414;-62
2023/10/02 08:22:52;;;;;;;4.57;2.60;;;25.20;50.00;;;;;;4999897;28;20535;-60
2023/10/02 08:25:23;;;;;;;4.05;2.50;;;25.20;50.00;;;;;;5000489;28;20038;-61
2023/10/02 08:27:57;;;;;;;4.05;2.63;;;25.20;50.00;;;;;;5002358;28;20027;-61
2023/10/02 08:30:27;;;;;;;4.55;2.70;;;25.20;50.00;;;;;;4999163;28;20044;-61
2023/10/02 08:32:55;;;;;;;4.28;2.53;;;25.20;50.10;;;;;;5000106;28;20105;-62
2023/10/02 08:35:21;;;;;;;4.57;3.05;;;25.20;50.10;;;;;;4998709;28;20038;-61
2023/10/02 08:37:54;;;;;;;4.50;2.92;;;25.20;50.10;;;;;;4999210;28;20026;-61
2023/10/02 08:40:20;;;;;;;4.80;2.78;;;25.20;50.10;;;;;;4997981;28;20172;-62
2023/10/02 08:42:52;;;;;;;4.00;2.60;;;25.20;50.00;;;;;;4999713;28;20045;-67
2023/10/02 08:45:21;;;;;;;4.78;2.90;;;25.20;50.10;;;;;;4998786;28;20117;-67
2023/10/02 08:47:47;;;;;;;4.43;3.00;;;25.20;50.00;;;;;;4998521;28;20339;-67
2023/10/02 08:50:17;;;;;;;3.95;2.63;;;25.20;50.10;;;;;;4998446;28;20097;-68
2023/10/02 08:52:52;;;;;;;3.70;2.28;;;25.20;50.00;;;;;;5000752;28;20104;-62
2023/10/02 08:55:51;;;;;;;4.03;2.50;;;25.20;50.10;;;;;;4999568;28;20466;-61
2023/10/02 08:58:22;;;;;;;4.13;2.60;;;25.20;50.00;;;;;;4999103;28;20026;-63
2023/10/02 09:03:43;;;;;;;4.88;2.65;;;25.20;50.00;;;;;;5000348;28;20038;-62
2023/10/02 09:06:32;;;;;;;4.65;2.55;;;25.20;50.10;;;;;;4998203;28;20031;-64
2023/10/02 09:09:21;;;;;;;4.20;2.90;;;25.20;50.00;;;;;;4998420;28;20066;-64
2023/10/02 09:11:52;;;;;;;4.35;2.70;;;25.20;50.00;;;;;;4999302;28;20386;-62
2023/10/02 09:14:39;;;;;;;4.60;3.08;;;25.20;50.10;;;;;;4997575;28;20040;-61
2023/10/02 09:17:19;;;;;;;4.05;2.47;;;25.20;50.10;;;;;;4997236;28;20030;-61
2023/10/02 09:20:03;;;;;;;4.65;2.70;;;25.20;50.10;;;;;;4998414;28;20045;-61
2023/10/02 09:22:29;;;;;;;5.68;2.90;;;25.20;50.20;;;;;;5001577;28;20069;-61
2023/10/02 09:27:56;;;;;;;5.13;3.10;;;25.20;50.20;;;;;;4998799;28;20574;-62
2023/10/02 09:30:23;;;;;;;;;;;25.20;50.20;;;;;;5000019;28;20023;-62
2023/10/02 09:32:51;;;;;;;4.45;2.90;;;25.20;50.30;;;;;;4999052;28;20592;-61
2023/10/02 09:35:29;;;;;;;4.20;2.80;;;25.20;50.20;;;;;;4998969;28;20112;-62
2023/10/02 09:38:04;;;;;;;4.57;2.90;;;25.20;50.30;;;;;;5000550;28;20060;-61
2023/10/02 09:43:21;;;;;;;4.63;2.85;;;25.20;50.40;;;;;;4999144;28;20033;-62
2023/10/02 09:45:55;;;;;;;4.65;2.83;;;25.20;50.40;;;;;;4999058;28;20038;-62
2023/10/02 09:51:14;;;;;;;3.78;2.50;;;25.20;50.40;;;;;;4996412;28;20041;-61
2023/10/02 09:54:02;;;;;;;4.60;2.65;;;25.20;50.40;;;;;;4998074;28;20026;-62
2023/10/02 09:56:51;;;;;;;4.95;3.08;;;25.20;50.40;;;;;;4997969;28;20026;-63
2023/10/02 09:59:20;;;;;;;4.97;3.28;;;25.20;50.40;;;;;;4999491;28;20390;-62
2023/10/02 10:02:08;;;;;;;5.15;3.00;;;25.20;50.50;;;;;;5001823;28;20034;-61
2023/10/02 10:07:52;;;;;;;6.03;3.45;;;25.20;50.40;;;;;;4998880;28;20284;-62
2023/10/02 10:10:46;;;;;;;4.47;2.95;;;25.20;50.60;;;;;;5002212;28;20057;-63
2023/10/02 10:13:37;;;;;;;4.60;3.10;;;25.20;50.50;;;;;;5000562;28;20030;-61
2023/10/02 10:16:18;;;;;;;5.35;3.17;;;25.20;50.50;;;;;;5001666;28;20763;-62
2023/10/02 10:21:56;;;;;;;3.90;2.80;;;25.20;50.60;;;;;;5001455;28;20034;-62
2023/10/02 10:24:56;;;;;;;4.90;3.17;;;25.20;50.60;;;;;;5001965;28;20505;-68
2023/10/02 10:27:38;;;;;;;5.18;3.22;;;25.20;50.60;;;;;;5002410;28;20029;-70
2023/10/02 10:30:19;;;;;;;4.50;3.13;;;25.20;50.70;;;;;;5004514;28;20033;-68
2023/10/02 10:32:45;;;;;;;5.30;3.22;;;25.20;50.70;;;;;;5001893;28;20026;-64
2023/10/02 10:35:35;;;;;;;4.93;2.88;;;25.30;50.80;;;;;;5001073;28;20521;-64
2023/10/02 10:38:04;;;;;;;5.35;3.70;;;25.30;50.70;;;;;;5001698;28;20038;-64
2023/10/02 10:40:44;;;;;;;4.85;3.13;;;25.20;50.60;;;;;;5002758;28;20030;-64
2023/10/02 10:43:20;;;;;;;5.10;3.30;;;25.20;50.60;;;;;;5000383;28;20430;-64
2023/10/02 10:45:48;;;;;;;5.53;3.20;;;25.30;50.70;;;;;;5001949;28;20430;-64
2023/10/02 10:48:22;;;;;;;6.60;3.70;;;25.20;50.70;;;;;;5001435;28;20389;-65
2023/10/02 10:51:02;;;;;;;5.43;3.60;;;25.30;50.80;;;;;;5000282;28;20176;-65
2023/10/02 10:53:28;;;;;;;6.53;3.92;;;25.30;50.80;;;;;;5001643;28;20022;-65
2023/10/02 10:56:03;;;;;;;6.30;4.00;;;25.20;50.70;;;;;;5014092;28;20490;-64
2023/10/02 10:58:36;;;;;;;7.00;3.97;;;25.30;50.80;;;;;;4999740;28;20908;-64
2023/10/02 11:01:03;;;;;;;6.75;4.10;;;25.20;50.80;;;;;;5000174;28;20068;-65
2023/10/02 11:03:30;;;;;;;7.00;4.38;;;25.30;50.80;;;;;;5000181;28;20084;-65
2023/10/02 11:06:10;;;;;;;7.95;4.22;;;25.30;50.70;;;;;;5001371;28;20035;-65
2023/10/02 11:08:38;;;;;;;6.70;4.25;;;25.30;50.70;;;;;;5002022;28;20023;-64
2023/10/02 11:11:19;;;;;;;6.88;4.68;;;25.30;50.70;;;;;;4999466;28;20113;-65
2023/10/02 11:13:58;;;;;;;7.47;4.72;;;25.30;50.80;;;;;;5001453;28;20446;-65
2023/10/02 11:16:30;;;;;;;8.38;4.97;;;25.30;50.70;;;;;;5002334;28;20030;-65
2023/10/02 11:19:21;;;;;;;7.18;4.90;;;25.30;50.80;;;;;;4999802;28;20478;-65
2023/10/02 11:22:14;;;;;;;7.72;4.85;;;25.30;50.80;;;;;;4999714;28;20033;-64
2023/10/02 11:25:02;;;;;;;8.70;5.28;;;25.30;50.80;;;;;;4999991;28;20070;-65
2023/10/02 11:27:29;;;;;;;8.77;5.28;;;25.30;50.80;;;;;;4994678;28;20043;-64
2023/10/02 11:30:03;;;;;;;8.80;5.60;;;25.30;50.80;;;;;;5000938;28;20057;-66
2023/10/02 11:32:50;;;;;;;9.00;5.38;;;25.30;50.80;;;;;;4998826;28;20041;-66
2023/10/02 11:35:17;;;;;;;9.48;6.10;;;25.30;50.80;;;;;;4998010;28;20018;-66
2023/10/02 11:37:47;;;;;;;10.15;6.18;;;25.30;50.80;;;;;;4999377;28;20033;-66
2023/10/02 11:40:13;;;;;;;9.48;6.15;;;25.30;50.70;;;;;;4999732;28;20521;-67
2023/10/02 11:42:40;;;;;;;10.20;5.78;;;25.30;50.80;;;;;;5000187;28;20038;-67
2023/10/02 11:45:07;;;;;;;10.00;5.82;;;25.30;50.80;;;;;;4999610;28;20489;-66
2023/10/02 11:47:33;;;;;;;18.17;7.25;;;25.30;50.80;;;;;;5001822;28;20393;-67
2023/10/02 11:49:59;;;;;;;12.05;6.90;;;25.30;50.80;;;;;;5013817;28;20030;-66
2023/10/02 11:52:25;;;;;;;10.25;6.30;;;25.30;50.80;;;;;;4999856;28;20425;-66
2023/10/02 11:54:51;;;;;;;10.10;6.65;;;25.30;50.80;;;;;;5001316;28;20014;-66
2023/10/02 11:57:16;;;;;;;10.85;7.05;;;25.30;50.80;;;;;;5001824;28;20033;-66
2023/10/02 11:59:43;;;;;;;9.98;6.05;;;25.30;50.80;;;;;;4999320;28;20061;-65
2023/10/02 12:02:13;;;;;;;10.07;6.75;;;25.30;50.80;;;;;;4998620;28;20022;-66
2023/10/02 12:04:39;;;;;;;11.05;6.40;;;25.30;50.90;;;;;;5001417;28;20022;-65
2023/10/02 12:07:06;;;;;;;9.80;6.10;;;25.30;51.40;;;;;;4998923;28;20080;-65
2023/10/02 12:09:33;;;;;;;10.70;6.75;;;25.30;50.90;;;;;;5001072;28;20029;-66
2023/10/02 12:11:59;;;;;;;10.05;6.30;;;25.30;50.80;;;;;;4997942;28;20495;-66
2023/10/02 12:14:29;;;;;;;10.25;6.15;;;25.30;50.80;;;;;;5000099;28;20030;-66
2023/10/02 12:16:57;;;;;;;12.10;6.63;;;25.30;50.80;;;;;;5001150;28;20062;-66
2023/10/02 12:19:28;;;;;;;9.25;6.10;;;25.40;50.90;;;;;;5000337;28;20030;-66
2023/10/02 12:21:55;;;;;;;10.00;5.90;;;25.30;50.90;;;;;;4999345;28;20038;-67
2023/10/02 12:24:21;;;;;;;9.38;6.10;;;25.30;50.90;;;;;;5000985;28;20084;-64
2023/10/02 12:26:46;;;;;;;9.35;5.90;;;25.30;50.90;;;;;;5000884;28;20034;-65
2023/10/02 12:29:12;;;;;;;9.57;6.15;;;25.40;51.10;;;;;;4997755;28;20037;-65
2023/10/02 12:31:38;;;;;;;9.98;6.18;;;25.40;51.10;;;;;;5000216;28;20021;-65
2023/10/02 12:34:05;;;;;;;8.68;5.70;;;25.40;51.00;;;;;;4998488;28;20026;-67
2023/10/02 12:36:31;;;;;;;8.95;5.72;;;25.40;51.00;;;;;;4997571;28;20173;-66
2023/10/02 12:38:57;;;;;;;8.77;5.75;;;25.40;50.90;;;;;;4999392;28;20030;-67
2023/10/02 12:41:30;;;;;;;8.95;6.18;;;25.40;50.90;;;;;;4998938;28;21500;-66
2023/10/02 12:43:58;;;;;;;8.88;5.70;;;25.40;51.00;;;;;;4998375;28;20036;-67
2023/10/02 12:46:25;;;;;;;9.75;6.35;;;25.40;50.90;;;;;;4998894;28;20508;-66
2023/10/02 12:48:51;;;;;;;9.07;6.03;;;25.40;50.90;;;;;;4999386;28;20113;-66
2023/10/02 12:51:17;;;;;;;9.18;5.70;;;25.40;51.00;;;;;;5012222;28;20113;-67
2023/10/02 12:53:43;;;;;;;10.07;6.05;;;25.40;51.00;;;;;;5008059;28;20061;-67
2023/10/02 12:56:22;;;;;;;10.07;6.05;;;25.40;51.00;;;;;;4997545;28;20034;-66
2023/10/02 12:58:49;;;;;;;9.43;5.95;;;25.40;51.00;;;;;;4998494;28;20041;-66
2023/10/02 13:01:16;;;;;;;9.52;6.10;;;25.40;51.00;;;;;;4999305;28;20034;-66
2023/10/02 13:03:44;;;;;;;8.30;5.60;;;25.40;51.00;;;;;;5001690;28;20540;-66
2023/10/02 13:06:14;;;;;;;9.13;6.03;;;25.40;51.00;;;;;;4997426;28;20548;-66
2023/10/02 13:08:43;;;;;;;9.43;6.30;;;25.40;51.00;;;;;;4998483;28;20029;-65
2023/10/02 13:11:14;;;;;;;10.05;6.60;;;25.40;51.00;;;;;;4998718;28;20068;-66
2023/10/02 13:13:43;;;;;;;9.70;6.00;;;25.50;51.00;;;;;;5013473;28;20058;-66
2023/10/02 13:16:08;;;;;;;9.98;5.90;;;25.50;51.00;;;;;;4997949;28;20022;-65
2023/10/02 13:18:35;;;;;;;8.52;5.80;;;25.50;51.00;;;;;;4997973;28;20081;-65
2023/10/02 13:21:01;;;;;;;8.15;5.35;;;25.50;51.00;;;;;;4999064;28;20030;-66
2023/10/02 13:23:27;;;;;;;9.05;5.40;;;25.50;51.00;;;;;;4998909;28;20041;-66
2023/10/02 13:25:54;;;;;;;9.52;5.93;;;25.50;51.00;;;;;;4996227;28;20478;-65
2023/10/02 13:28:20;;;;;;;9.00;5.75;;;25.50;51.00;;;;;;5001924;28;20053;-66
2023/10/02 13:30:46;;;;;;;9.25;5.60;;;25.50;51.00;;;;;;5012963;28;20037;-65
2023/10/02 13:33:11;;;;;;;9.05;5.35;;;25.50;51.00;;;;;;4997592;28;20459;-66
2023/10/02 13:35:44;;;;;;;8.68;5.47;;;25.50;51.00;;;;;;4997685;28;20072;-66
2023/10/02 13:38:10;;;;;;;8.75;5.78;;;25.50;51.10;;;;;;4997686;28;20022;-65
2023/10/02 13:40:38;;;;;;;9.52;5.88;;;25.60;51.10;;;;;;4997514;28;20042;-66
2023/10/02 13:43:05;;;;;;;8.75;6.00;;;25.50;51.00;;;;;;4999147;28;20376;-69
2023/10/02 13:45:34;;;;;;;8.90;5.78;;;25.50;51.00;;;;;;4998110;28;20026;-69
2023/10/02 13:47:59;;;;;;;9.40;6.30;;;25.60;51.10;;;;;;5019840;28;20466;-70
2023/10/02 13:50:25;;;;;;;9.00;5.88;;;25.50;51.00;;;;;;5006858;28;20105;-67
2023/10/02 13:52:53;;;;;;;9.23;5.95;;;25.50;51.00;;;;;;5006083;28;20462;-68
2023/10/02 13:55:19;;;;;;;9.75;6.18;;;25.50;51.10;;;;;;5007479;28;20030;-67
2023/10/02 13:57:49;;;;;;;9.85;5.57;;;25.50;51.10;;;;;;5006281;28;20172;-68
2023/10/02 14:00:17;;;;;;;8.65;5.57;;;25.50;51.10;;;;;;5005428;28;20033;-67
2023/10/02 14:02:51;;;;;;;8.57;5.70;;;25.50;51.10;;;;;;5014621;28;20034;-68
2023/10/02 14:05:18;;;;;;;8.77;5.72;;;25.50;51.10;;;;;;5006695;28;20030;-67